Time;durP1;ratioP1;P1;durP2;ratioP2;P2;SDS_P1;SDS_P2;PMS_P1;PMS_P2;Temp;Humidity;BMP_temperature;BMP_pressure;BME280_temperature;BME280_humidity;BME280_pressure;Samples;Min_cycle;Max_cycle;Signal;HPM_P1;HPM_P2
2021/08/19 00:01:22;;;;;;;7.70;3.20;;;25.10;44.00;;;;;;5026484;28;20132;-66
2021/08/19 00:03:48;;;;;;;3.65;2.80;;;25.20;44.10;;;;;;5023294;28;20029;-66
2021/08/19 00:06:14;;;;;;;6.10;2.80;;;25.10;44.30;;;;;;5023281;28;20061;-67
2021/08/19 00:08:40;;;;;;;5.43;2.88;;;25.00;44.30;;;;;;5004960;28;20038;-67
2021/08/19 00:11:06;;;;;;;7.22;3.00;;;25.10;44.10;;;;;;5027312;28;20049;-67
2021/08/19 00:13:32;;;;;;;3.17;2.70;;;25.10;44.10;;;;;;5028835;28;20036;-67
2021/08/19 00:15:59;;;;;;;3.20;2.83;;;25.20;44.40;;;;;;5005238;28;20403;-67
2021/08/19 00:18:24;;;;;;;3.58;2.60;;;25.10;43.80;;;;;;4997346;28;20415;-67
2021/08/19 00:20:50;;;;;;;8.75;3.00;;;25.00;43.60;;;;;;5025892;28;20034;-67
2021/08/19 00:23:17;;;;;;;2.92;2.40;;;25.00;43.30;;;;;;5023427;28;20545;-67
2021/08/19 00:25:42;;;;;;;3.53;2.75;;;25.00;43.70;;;;;;5028004;28;20398;-66
2021/08/19 00:28:08;;;;;;;5.93;2.70;;;25.10;43.10;;;;;;5025536;28;20041;-67
2021/08/19 00:30:33;;;;;;;3.63;2.53;;;24.90;42.90;;;;;;5007606;28;20077;-67
2021/08/19 00:32:59;;;;;;;5.65;2.55;;;24.90;42.60;;;;;;5024228;28;20042;-67
2021/08/19 00:35:25;;;;;;;2.95;2.65;;;24.90;43.00;;;;;;5020869;28;20449;-67
2021/08/19 00:37:51;;;;;;;3.72;2.30;;;24.90;42.70;;;;;;5029058;28;20061;-67
2021/08/19 00:40:16;;;;;;;4.13;2.60;;;25.00;42.20;;;;;;5024114;28;20040;-66
2021/08/19 00:42:42;;;;;;;2.92;2.65;;;24.90;42.10;;;;;;5018343;28;20037;-66
2021/08/19 00:45:08;;;;;;;3.42;2.35;;;24.90;41.80;;;;;;5007979;28;20110;-67
2021/08/19 00:47:37;;;;;;;4.22;2.20;;;24.90;42.30;;;;;;5012417;28;20033;-67
2021/08/19 00:50:04;;;;;;;3.00;1.80;;;24.80;41.90;;;;;;5004811;28;20088;-67
2021/08/19 00:52:30;;;;;;;2.55;2.20;;;24.80;42.00;;;;;;5008054;28;20030;-67
2021/08/19 00:54:56;;;;;;;2.15;1.95;;;24.80;42.20;;;;;;5009192;28;20042;-67
2021/08/19 00:57:21;;;;;;;3.90;2.45;;;24.90;42.10;;;;;;5004821;28;20046;-67
2021/08/19 00:59:48;;;;;;;2.22;1.77;;;24.80;41.80;;;;;;4999950;28;20393;-67
2021/08/19 01:02:14;;;;;;;3.92;1.98;;;24.80;41.50;;;;;;5028756;28;20045;-66
2021/08/19 01:04:40;;;;;;;3.55;2.15;;;24.80;41.70;;;;;;5028762;28;20038;-67
2021/08/19 01:07:06;;;;;;;2.70;2.05;;;24.70;41.50;;;;;;5007557;28;20079;-67
2021/08/19 01:09:34;;;;;;;4.30;2.60;;;24.80;41.60;;;;;;5028627;28;20037;-67
2021/08/19 01:12:00;;;;;;;2.83;1.98;;;24.80;41.20;;;;;;5020984;28;20046;-67
2021/08/19 01:14:26;;;;;;;5.20;2.20;;;24.80;40.90;;;;;;5029714;28;20056;-67
2021/08/19 01:16:52;;;;;;;2.55;2.00;;;24.70;40.80;;;;;;5021714;28;20476;-67
2021/08/19 01:19:22;;;;;;;3.38;2.17;;;24.80;40.70;;;;;;5017194;28;20034;-66
2021/08/19 01:21:50;;;;;;;3.05;1.90;;;24.80;40.70;;;;;;5021472;28;20045;-67
2021/08/19 01:24:15;;;;;;;3.47;2.42;;;24.80;40.50;;;;;;5026050;28;20072;-67
2021/08/19 01:26:42;;;;;;;4.60;2.40;;;24.60;40.40;;;;;;5024063;28;20144;-66
2021/08/19 01:29:08;;;;;;;4.80;2.15;;;24.70;40.40;;;;;;5017263;28;20037;-67
2021/08/19 01:31:35;;;;;;;3.63;2.08;;;24.70;40.20;;;;;;5007761;28;20041;-67
2021/08/19 01:34:01;;;;;;;3.63;2.20;;;24.80;39.90;;;;;;5012040;28;20046;-67
2021/08/19 01:36:27;;;;;;;3.70;2.10;;;24.80;39.80;;;;;;5004574;28;20059;-67
2021/08/19 01:38:53;;;;;;;2.70;2.10;;;24.80;39.50;;;;;;5027280;28;20060;-67
2021/08/19 01:41:19;;;;;;;3.30;2.28;;;24.80;39.50;;;;;;5022132;28;20037;-67
2021/08/19 01:43:48;;;;;;;3.08;2.20;;;24.70;39.40;;;;;;5026991;28;20040;-66
2021/08/19 01:46:18;;;;;;;8.88;2.22;;;24.60;39.50;;;;;;5026145;28;20042;-66
2021/08/19 01:48:49;;;;;;;3.00;2.05;;;24.50;39.60;;;;;;5023897;28;20114;-66
2021/08/19 01:51:18;;;;;;;4.70;2.28;;;24.70;39.50;;;;;;5016621;28;20045;-66
2021/08/19 01:53:48;;;;;;;3.63;1.90;;;24.60;39.60;;;;;;5019279;28;20050;-66
2021/08/19 01:56:18;;;;;;;2.88;1.85;;;24.60;39.70;;;;;;5026164;28;20029;-66
2021/08/19 01:58:44;;;;;;;3.65;2.25;;;24.60;39.60;;;;;;5020572;28;20525;-66
2021/08/19 02:01:10;;;;;;;4.97;2.10;;;24.60;39.60;;;;;;5001159;28;20061;-66
2021/08/19 02:03:35;;;;;;;5.20;2.13;;;24.50;39.60;;;;;;5023737;28;20067;-67
2021/08/19 02:06:01;;;;;;;3.60;2.10;;;24.50;39.70;;;;;;5025498;28;20460;-67
2021/08/19 02:08:27;;;;;;;3.15;1.98;;;24.40;39.60;;;;;;5022936;28;20052;-67
2021/08/19 02:10:52;;;;;;;4.28;2.22;;;24.40;39.60;;;;;;5026836;28;20099;-66
2021/08/19 02:13:18;;;;;;;5.88;2.20;;;24.40;39.60;;;;;;5024143;28;20037;-66
2021/08/19 02:15:43;;;;;;;3.13;1.90;;;24.40;39.70;;;;;;5027754;28;20029;-66
2021/08/19 02:18:09;;;;;;;3.22;1.90;;;24.40;39.40;;;;;;5000175;28;20520;-66
2021/08/19 02:20:35;;;;;;;4.97;2.22;;;24.40;39.60;;;;;;5017978;28;20038;-66
2021/08/19 02:23:03;;;;;;;3.42;2.28;;;24.20;39.90;;;;;;5003639;28;20046;-67
2021/08/19 02:25:29;;;;;;;4.53;2.40;;;24.30;40.80;;;;;;5009936;28;20066;-66
2021/08/19 02:27:56;;;;;;;3.28;2.22;;;24.20;40.90;;;;;;5007884;28;20430;-66
2021/08/19 02:30:22;;;;;;;4.43;2.40;;;24.30;41.60;;;;;;5015898;28;20038;-66
2021/08/19 02:32:56;;;;;;;4.45;2.00;;;24.20;41.90;;;;;;5023352;28;20042;-66
2021/08/19 02:35:29;;;;;;;4.35;2.00;;;24.30;42.00;;;;;;5004483;28;20423;-66
2021/08/19 02:37:56;;;;;;;4.90;1.92;;;24.20;42.70;;;;;;5026942;28;20072;-66
2021/08/19 02:40:23;;;;;;;3.75;2.35;;;24.20;42.60;;;;;;5022742;28;20042;-66
2021/08/19 02:42:48;;;;;;;4.03;2.45;;;24.10;43.00;;;;;;5026902;28;20047;-66
2021/08/19 02:45:14;;;;;;;3.33;2.35;;;24.10;43.30;;;;;;5025870;28;20116;-65
2021/08/19 02:47:40;;;;;;;2.70;2.40;;;24.10;43.80;;;;;;5028495;28;20121;-66
2021/08/19 02:50:06;;;;;;;4.05;2.50;;;24.10;44.60;;;;;;5016772;28;20033;-66
2021/08/19 02:52:32;;;;;;;5.80;3.33;;;24.10;44.70;;;;;;5013344;28;20041;-66
2021/08/19 02:54:58;;;;;;;3.97;2.40;;;24.20;44.50;;;;;;5007703;28;20057;-66
2021/08/19 02:57:23;;;;;;;2.97;2.00;;;24.30;44.50;;;;;;5010986;28;20088;-66
2021/08/19 02:59:49;;;;;;;2.90;2.10;;;24.30;44.80;;;;;;5007121;28;20108;-66
2021/08/19 03:02:14;;;;;;;2.50;1.73;;;24.30;44.60;;;;;;5014344;28;20059;-65
2021/08/19 03:04:40;;;;;;;4.57;2.40;;;24.30;44.90;;;;;;5029910;28;20034;-67
2021/08/19 03:07:09;;;;;;;2.60;2.30;;;24.30;44.80;;;;;;5027525;28;20041;-66
2021/08/19 03:09:34;;;;;;;3.22;1.88;;;24.40;45.10;;;;;;5023684;28;20060;-66
2021/08/19 03:12:00;;;;;;;4.72;2.03;;;24.40;45.30;;;;;;5029148;28;20045;-66
2021/08/19 03:14:26;;;;;;;3.00;1.83;;;24.30;45.50;;;;;;5031026;28;20045;-66
2021/08/19 03:16:51;;;;;;;4.10;2.17;;;24.30;45.80;;;;;;5018990;28;20116;-66
2021/08/19 03:19:17;;;;;;;3.58;2.08;;;24.30;45.80;;;;;;5014736;28;20049;-66
2021/08/19 03:21:43;;;;;;;4.80;2.00;;;24.20;45.70;;;;;;5021337;28;20041;-65
2021/08/19 03:24:08;;;;;;;3.15;2.03;;;24.00;46.30;;;;;;5030668;28;20044;-66
2021/08/19 03:26:34;;;;;;;2.55;2.35;;;24.10;46.40;;;;;;5018308;28;20038;-66
2021/08/19 03:29:00;;;;;;;2.83;2.08;;;24.10;46.60;;;;;;5023807;28;20043;-66
2021/08/19 03:31:27;;;;;;;4.03;2.58;;;24.10;46.50;;;;;;5028222;28;20044;-66
2021/08/19 03:33:53;;;;;;;2.92;1.85;;;24.10;46.70;;;;;;5015694;28;20151;-66
2021/08/19 03:36:18;;;;;;;3.92;2.20;;;24.10;46.60;;;;;;5007080;28;20387;-66
2021/08/19 03:38:44;;;;;;;2.28;2.08;;;23.90;47.00;;;;;;5017859;28;20049;-65
2021/08/19 03:41:11;;;;;;;5.45;2.70;;;24.00;47.30;;;;;;5026205;28;20041;-66
2021/08/19 03:43:37;;;;;;;4.15;2.05;;;24.00;47.30;;;;;;5018134;28;20045;-66
2021/08/19 03:46:03;;;;;;;2.55;2.03;;;23.90;47.60;;;;;;5013210;28;20084;-67
2021/08/19 03:48:29;;;;;;;4.35;2.38;;;24.00;47.90;;;;;;5012238;28;20109;-66
2021/08/19 03:50:54;;;;;;;3.35;2.45;;;24.00;47.80;;;;;;5012945;28;20391;-66
2021/08/19 03:53:20;;;;;;;3.08;2.13;;;24.00;48.00;;;;;;5009245;28;20472;-66
2021/08/19 03:55:45;;;;;;;3.78;2.13;;;23.90;48.00;;;;;;5013664;28;20037;-66
2021/08/19 03:58:11;;;;;;;2.70;2.10;;;23.80;48.40;;;;;;4999085;28;20076;-66
2021/08/19 04:00:37;;;;;;;3.25;2.65;;;23.90;48.20;;;;;;5015041;28;20542;-66
2021/08/19 04:03:02;;;;;;;2.15;1.95;;;23.90;48.30;;;;;;5026171;28;20365;-66
2021/08/19 04:05:28;;;;;;;3.05;1.98;;;23.80;48.30;;;;;;5028645;28;20109;-66
2021/08/19 04:07:54;;;;;;;2.67;2.25;;;23.90;48.70;;;;;;5022482;28;20041;-66
2021/08/19 04:10:20;;;;;;;4.07;2.35;;;23.80;48.70;;;;;;5029621;28;20041;-66
2021/08/19 04:12:46;;;;;;;2.92;2.58;;;23.80;48.60;;;;;;5025022;28;20112;-66
2021/08/19 04:15:12;;;;;;;3.97;2.60;;;23.90;48.70;;;;;;5025834;28;20087;-66
2021/08/19 04:17:38;;;;;;;2.88;2.42;;;23.80;48.90;;;;;;5004425;28;20038;-67
2021/08/19 04:20:05;;;;;;;2.30;1.90;;;23.70;48.70;;;;;;5008367;28;20100;-66
2021/08/19 04:22:31;;;;;;;2.78;2.40;;;23.80;49.20;;;;;;5014245;28;20124;-67
2021/08/19 04:24:57;;;;;;;4.70;2.08;;;23.90;49.00;;;;;;5032895;28;20121;-66
2021/08/19 04:27:22;;;;;;;2.75;2.40;;;23.90;49.00;;;;;;5030211;28;20048;-66
2021/08/19 04:29:48;;;;;;;4.88;2.22;;;23.90;48.90;;;;;;5023757;28;20041;-65
2021/08/19 04:32:15;;;;;;;5.80;2.40;;;23.80;48.90;;;;;;5014907;28;20077;-66
2021/08/19 04:34:41;;;;;;;3.92;2.15;;;23.70;49.00;;;;;;5024921;28;20117;-66
2021/08/19 04:37:06;;;;;;;4.57;2.55;;;23.80;49.00;;;;;;5027811;28;20136;-66
2021/08/19 04:39:32;;;;;;;2.90;2.05;;;23.80;48.70;;;;;;5022833;28;21248;-66
2021/08/19 04:41:58;;;;;;;5.45;2.63;;;23.70;48.50;;;;;;5028701;28;20125;-66
2021/08/19 04:44:24;;;;;;;3.05;2.50;;;23.80;48.70;;;;;;5019105;28;20577;-66
2021/08/19 04:46:50;;;;;;;3.03;2.28;;;23.60;48.60;;;;;;5028929;28;20029;-66
2021/08/19 04:49:15;;;;;;;3.38;2.20;;;23.70;48.50;;;;;;5024986;28;20112;-66
2021/08/19 04:51:41;;;;;;;2.33;1.90;;;23.80;48.70;;;;;;5027989;28;20041;-66
2021/08/19 04:54:08;;;;;;;3.33;2.28;;;23.70;49.00;;;;;;5005332;28;20041;-66
2021/08/19 04:56:37;;;;;;;3.92;2.30;;;23.60;49.10;;;;;;5011106;28;20042;-66
2021/08/19 04:59:08;;;;;;;4.40;2.28;;;23.60;49.10;;;;;;5001074;28;20057;-66
2021/08/19 05:01:33;;;;;;;3.83;2.20;;;23.60;49.50;;;;;;5020467;28;20096;-66
2021/08/19 05:03:59;;;;;;;3.08;1.95;;;23.70;49.30;;;;;;5007216;28;20037;-66
2021/08/19 05:06:29;;;;;;;3.97;2.72;;;23.70;49.40;;;;;;5027415;28;20076;-67
2021/08/19 05:08:56;;;;;;;3.25;2.30;;;23.80;49.50;;;;;;5024710;28;20522;-66
2021/08/19 05:11:22;;;;;;;4.68;2.40;;;23.90;49.60;;;;;;5021854;28;20110;-66
2021/08/19 05:13:49;;;;;;;2.78;2.13;;;23.90;49.20;;;;;;5024026;28;20037;-66
2021/08/19 05:16:15;;;;;;;4.72;2.50;;;23.90;49.30;;;;;;5014874;28;20034;-65
2021/08/19 05:18:40;;;;;;;3.17;2.03;;;23.90;49.00;;;;;;5017679;28;20068;-66
2021/08/19 05:21:08;;;;;;;3.55;2.20;;;23.90;48.70;;;;;;5024015;28;20038;-66
2021/08/19 05:23:33;;;;;;;5.10;2.30;;;23.90;48.80;;;;;;5030363;28;20499;-66
2021/08/19 05:25:59;;;;;;;5.38;2.05;;;24.00;49.00;;;;;;5012106;28;20049;-66
2021/08/19 05:28:25;;;;;;;4.25;2.20;;;24.10;48.60;;;;;;5027366;28;20044;-66
2021/08/19 05:30:51;;;;;;;3.67;2.08;;;24.10;48.50;;;;;;5023247;28;20029;-66
2021/08/19 05:33:17;;;;;;;4.28;1.83;;;24.10;48.40;;;;;;5029792;28;20101;-66
2021/08/19 05:35:42;;;;;;;4.85;2.10;;;24.20;48.30;;;;;;5023989;28;20038;-66
2021/08/19 05:38:08;;;;;;;3.67;2.47;;;24.20;48.70;;;;;;5015920;28;20038;-66
2021/08/19 05:40:33;;;;;;;6.53;2.22;;;24.10;48.00;;;;;;5016825;28;20037;-66
2021/08/19 05:42:59;;;;;;;3.10;1.98;;;24.20;48.10;;;;;;5025147;28;20064;-66
2021/08/19 05:45:25;;;;;;;2.95;1.90;;;24.30;48.70;;;;;;5024543;28;20077;-66
2021/08/19 05:47:50;;;;;;;2.90;2.08;;;24.30;47.90;;;;;;5017245;28;20034;-66
2021/08/19 05:50:16;;;;;;;5.93;2.47;;;24.40;47.60;;;;;;5026623;28;20029;-66
2021/08/19 05:52:43;;;;;;;5.55;1.92;;;24.40;47.70;;;;;;5021500;28;20467;-66
2021/08/19 05:55:10;;;;;;;4.20;2.20;;;24.30;47.40;;;;;;5027244;28;20041;-66
2021/08/19 05:57:35;;;;;;;4.20;2.08;;;24.30;47.10;;;;;;5015585;28;20100;-66
2021/08/19 06:00:02;;;;;;;7.78;2.47;;;24.40;47.30;;;;;;5023822;28;20045;-66
2021/08/19 06:02:28;;;;;;;4.10;2.25;;;24.40;46.90;;;;;;5004167;28;20057;-66
2021/08/19 06:04:53;;;;;;;6.85;2.67;;;24.40;47.70;;;;;;5011402;28;20041;-66
2021/08/19 06:07:19;;;;;;;4.68;2.03;;;24.50;47.00;;;;;;5006709;28;20046;-65
2021/08/19 06:09:44;;;;;;;11.27;2.67;;;24.60;46.70;;;;;;5022566;28;20472;-65
2021/08/19 06:12:10;;;;;;;4.43;1.85;;;24.70;46.50;;;;;;5019189;28;20050;-66
2021/08/19 06:14:36;;;;;;;8.40;1.85;;;24.80;46.20;;;;;;5011645;28;20041;-66
2021/08/19 06:17:01;;;;;;;4.18;2.40;;;24.80;45.90;;;;;;5022343;28;20041;-67
2021/08/19 06:19:27;;;;;;;4.00;2.15;;;24.90;46.00;;;;;;5026594;28;20046;-66
2021/08/19 06:21:52;;;;;;;8.13;2.70;;;25.00;45.70;;;;;;5027399;28;20426;-66
2021/08/19 06:24:18;;;;;;;6.10;2.20;;;24.90;45.10;;;;;;5023150;28;20034;-66
2021/08/19 06:26:44;;;;;;;4.20;2.35;;;25.00;45.50;;;;;;5025961;28;20686;-62
2021/08/19 06:29:10;;;;;;;4.40;2.22;;;25.10;45.60;;;;;;5018417;28;20087;-66
2021/08/19 06:31:35;;;;;;;4.15;2.05;;;25.00;45.20;;;;;;5027836;28;20037;-66
2021/08/19 06:34:01;;;;;;;4.70;2.13;;;25.00;45.10;;;;;;5021591;28;20395;-66
2021/08/19 06:36:27;;;;;;;4.78;2.25;;;24.90;45.50;;;;;;5019426;28;20072;-66
2021/08/19 06:38:53;;;;;;;4.95;2.45;;;25.10;45.40;;;;;;5004019;28;20037;-66
2021/08/19 06:41:20;;;;;;;5.65;2.50;;;25.00;45.40;;;;;;5010651;28;20088;-66
2021/08/19 06:43:46;;;;;;;10.43;2.65;;;24.90;45.10;;;;;;5016807;28;20056;-65
2021/08/19 06:46:11;;;;;;;5.05;2.03;;;25.00;45.20;;;;;;5021360;28;20037;-66
2021/08/19 06:48:37;;;;;;;9.93;2.42;;;25.00;45.10;;;;;;4980748;28;20030;-66
2021/08/19 06:51:03;;;;;;;4.85;2.35;;;25.10;45.10;;;;;;5004480;28;20112;-66
2021/08/19 06:53:28;;;;;;;4.80;2.45;;;25.30;44.30;;;;;;5020320;28;20060;-67
2021/08/19 06:55:54;;;;;;;5.80;2.00;;;25.30;43.80;;;;;;5025640;28;20080;-66
2021/08/19 06:58:19;;;;;;;5.40;2.20;;;25.40;43.20;;;;;;5005205;28;20053;-65
2021/08/19 07:00:45;;;;;;;9.90;2.78;;;25.40;43.20;;;;;;5013608;28;20056;-66
2021/08/19 07:03:15;;;;;;;6.95;2.67;;;25.40;43.20;;;;;;5016073;28;20096;-66
2021/08/19 07:05:42;;;;;;;8.40;2.70;;;25.50;43.40;;;;;;5022055;28;20047;-66
2021/08/19 07:08:07;;;;;;;9.13;2.83;;;25.50;43.80;;;;;;5024724;28;20046;-67
2021/08/19 07:10:33;;;;;;;3.88;2.50;;;25.50;44.00;;;;;;5018229;28;20111;-67
2021/08/19 07:12:59;;;;;;;6.95;2.60;;;25.50;44.50;;;;;;5024712;28;20125;-66
2021/08/19 07:15:24;;;;;;;4.20;1.88;;;25.40;44.70;;;;;;5021861;28;20029;-66
2021/08/19 07:17:50;;;;;;;3.05;2.38;;;25.30;44.90;;;;;;5009308;28;20091;-65
2021/08/19 07:20:16;;;;;;;6.00;2.50;;;25.30;45.20;;;;;;5023397;28;20073;-65
2021/08/19 07:22:45;;;;;;;5.40;2.60;;;25.40;45.10;;;;;;5025507;28;20029;-66
2021/08/19 07:25:12;;;;;;;7.20;3.03;;;25.60;45.00;;;;;;5009831;28;20045;-66
2021/08/19 07:27:38;;;;;;;3.47;2.08;;;25.50;45.10;;;;;;5006436;28;20052;-66
2021/08/19 07:30:05;;;;;;;5.68;2.40;;;25.50;45.30;;;;;;5019260;28;20132;-66
2021/08/19 07:32:30;;;;;;;4.60;2.22;;;25.60;45.60;;;;;;5019702;28;20490;-66
2021/08/19 07:34:56;;;;;;;5.60;3.22;;;25.60;45.70;;;;;;5023977;28;20121;-66
2021/08/19 07:37:21;;;;;;;4.70;2.47;;;25.60;45.70;;;;;;5029486;28;20033;-66
2021/08/19 07:39:47;;;;;;;9.45;3.08;;;25.60;45.70;;;;;;5029593;28;20487;-66
2021/08/19 07:42:13;;;;;;;6.50;2.70;;;25.70;45.80;;;;;;5025891;28;20049;-66
2021/08/19 07:44:38;;;;;;;4.68;2.75;;;25.80;45.60;;;;;;5028750;28;20432;-66
2021/08/19 07:47:04;;;;;;;5.32;2.20;;;25.90;46.00;;;;;;5015541;28;20075;-66
2021/08/19 07:49:30;;;;;;;5.70;2.95;;;26.00;44.90;;;;;;5027610;28;20128;-66
2021/08/19 07:51:56;;;;;;;10.60;2.83;;;25.90;44.30;;;;;;5027583;28;20437;-66
2021/08/19 07:54:21;;;;;;;4.38;3.55;;;26.10;44.40;;;;;;5027023;28;20040;-66
2021/08/19 07:56:47;;;;;;;5.65;3.30;;;26.20;44.10;;;;;;5005999;28;20467;-66
2021/08/19 07:59:13;;;;;;;6.35;2.38;;;26.20;43.50;;;;;;5030294;28;20053;-66
2021/08/19 08:02:12;;;;;;;5.40;3.33;;;26.40;43.40;;;;;;5025594;28;20394;-66
2021/08/19 08:04:38;;;;;;;4.80;2.35;;;26.50;42.50;;;;;;5000590;28;20048;-67
2021/08/19 08:07:04;;;;;;;6.90;2.67;;;26.50;42.40;;;;;;5020657;28;20049;-66
2021/08/19 08:09:29;;;;;;;5.45;2.83;;;26.70;42.10;;;;;;5010454;28;20045;-66
2021/08/19 08:11:56;;;;;;;4.25;2.40;;;26.60;41.90;;;;;;5023446;28;20121;-66
2021/08/19 08:14:21;;;;;;;7.97;2.80;;;26.60;41.80;;;;;;5024760;28;20399;-66
2021/08/19 08:16:47;;;;;;;5.63;2.70;;;26.60;41.80;;;;;;5025465;28;20124;-66
2021/08/19 08:19:16;;;;;;;6.22;2.67;;;26.50;42.00;;;;;;5026034;28;20103;-66
2021/08/19 08:21:41;;;;;;;6.43;2.55;;;26.50;42.10;;;;;;5006128;28;20124;-67
2021/08/19 08:24:08;;;;;;;3.33;2.30;;;26.40;42.00;;;;;;5008545;28;20113;-66
2021/08/19 08:26:33;;;;;;;7.45;2.70;;;26.20;42.30;;;;;;5010185;28;20087;-66
2021/08/19 08:28:59;;;;;;;4.18;2.75;;;26.20;42.30;;;;;;5010085;28;20128;-67
2021/08/19 08:31:25;;;;;;;5.05;2.38;;;26.00;42.20;;;;;;5015096;28;20431;-66
2021/08/19 08:33:51;;;;;;;2.53;2.33;;;26.20;42.60;;;;;;5017967;28;20368;-66
2021/08/19 08:36:17;;;;;;;3.85;2.75;;;26.30;42.30;;;;;;5030118;28;20487;-65
2021/08/19 08:38:44;;;;;;;4.18;2.55;;;26.30;41.70;;;;;;5024720;28;20123;-67
2021/08/19 08:41:11;;;;;;;3.65;2.15;;;26.40;41.70;;;;;;5008247;28;20546;-66
2021/08/19 08:43:37;;;;;;;4.35;2.50;;;26.50;41.60;;;;;;5006852;28;20046;-66
2021/08/19 08:46:06;;;;;;;5.68;2.97;;;26.30;41.90;;;;;;5008654;28;20038;-66
2021/08/19 08:48:32;;;;;;;2.70;2.50;;;26.40;42.30;;;;;;5008182;28;20038;-67
2021/08/19 08:50:58;;;;;;;2.97;2.17;;;26.40;42.10;;;;;;5020755;28;20038;-66
2021/08/19 08:53:25;;;;;;;3.97;2.45;;;26.50;42.30;;;;;;5004932;28;20369;-67
2021/08/19 08:55:51;;;;;;;3.42;2.53;;;26.50;41.80;;;;;;5008357;28;20089;-67
2021/08/19 08:58:17;;;;;;;3.20;2.90;;;26.50;41.70;;;;;;5007145;28;20496;-66
2021/08/19 09:00:45;;;;;;;5.25;3.20;;;26.50;41.70;;;;;;5011338;28;20064;-67
2021/08/19 09:03:13;;;;;;;3.33;2.97;;;26.40;41.40;;;;;;5002704;28;20369;-66
2021/08/19 09:05:44;;;;;;;5.03;3.35;;;26.50;41.80;;;;;;5018288;28;20587;-67
2021/08/19 09:08:15;;;;;;;4.20;3.53;;;26.60;41.80;;;;;;5006606;28;20038;-67
2021/08/19 09:10:41;;;;;;;6.13;3.38;;;26.60;42.30;;;;;;5023841;28;20141;-67
2021/08/19 09:13:09;;;;;;;3.05;2.75;;;26.70;41.90;;;;;;5018014;28;20538;-67
2021/08/19 09:15:35;;;;;;;4.85;2.80;;;26.80;41.70;;;;;;5019239;28;20053;-67
2021/08/19 09:18:02;;;;;;;4.55;3.10;;;26.90;41.50;;;;;;5027802;28;20384;-67
2021/08/19 09:20:42;;;;;;;4.45;3.15;;;27.00;41.60;;;;;;5020453;28;20079;-66
2021/08/19 09:23:13;;;;;;;5.22;3.65;;;27.10;41.60;;;;;;5011992;28;20045;-67
2021/08/19 09:25:47;;;;;;;3.08;2.78;;;27.10;41.00;;;;;;5006861;28;20026;-67
2021/08/19 09:28:20;;;;;;;5.00;3.30;;;27.30;40.60;;;;;;5016890;28;20163;-67
2021/08/19 09:30:58;;;;;;;6.47;2.95;;;27.50;40.10;;;;;;5006581;28;20072;-65
2021/08/19 09:33:29;;;;;;;5.25;3.50;;;27.70;39.90;;;;;;5011846;28;20049;-66
2021/08/19 09:36:00;;;;;;;4.75;3.10;;;28.00;38.70;;;;;;5005274;28;20044;-67
2021/08/19 09:38:38;;;;;;;5.78;3.50;;;28.30;37.80;;;;;;5032235;28;20065;-66
2021/08/19 09:41:17;;;;;;;5.45;3.03;;;28.50;37.20;;;;;;5024425;28;20042;-67
2021/08/19 09:43:51;;;;;;;5.55;2.85;;;28.50;36.50;;;;;;5022408;28;20037;-67
2021/08/19 09:46:29;;;;;;;4.82;3.05;;;28.80;35.60;;;;;;5002383;28;20148;-66
2021/08/19 09:48:55;;;;;;;3.25;2.95;;;28.70;36.10;;;;;;5025436;28;20168;-67
2021/08/19 09:51:24;;;;;;;5.95;3.35;;;29.00;35.90;;;;;;5022203;28;20120;-67
2021/08/19 09:53:58;;;;;;;3.47;3.17;;;28.90;34.80;;;;;;5023791;28;20041;-66
2021/08/19 09:56:30;;;;;;;5.40;2.90;;;29.00;34.70;;;;;;5003873;28;20034;-67
2021/08/19 09:59:33;;;;;;;5.70;2.70;;;29.00;34.30;;;;;;5025458;28;20684;-67
2021/08/19 10:01:59;;;;;;;7.18;3.22;;;29.10;34.00;;;;;;4978015;28;20049;-67
2021/08/19 10:04:25;;;;;;;5.82;3.17;;;29.30;34.20;;;;;;5000761;28;20488;-67
2021/08/19 10:06:55;;;;;;;5.57;3.38;;;29.40;34.40;;;;;;4996928;28;20062;-67
2021/08/19 10:09:22;;;;;;;5.55;2.67;;;29.40;34.60;;;;;;5016814;28;20052;-66
2021/08/19 10:11:50;;;;;;;4.30;3.28;;;28.80;35.10;;;;;;5022489;28;20109;-66
2021/08/19 10:14:18;;;;;;;3.08;2.63;;;28.80;35.70;;;;;;5023733;28;20033;-67
2021/08/19 10:16:45;;;;;;;5.75;2.70;;;29.00;35.10;;;;;;5003462;28;20520;-67
2021/08/19 10:19:31;;;;;;;3.13;2.83;;;29.10;34.00;;;;;;5006409;28;20159;-66
2021/08/19 10:22:11;;;;;;;3.97;3.22;;;29.20;31.30;;;;;;4986898;28;20032;-67
2021/08/19 10:24:40;;;;;;;3.85;2.75;;;29.30;32.70;;;;;;5009277;28;20057;-67
2021/08/19 10:27:09;;;;;;;3.13;2.65;;;29.40;31.50;;;;;;5004545;28;22465;-67
2021/08/19 10:29:59;;;;;;;5.07;2.92;;;29.40;31.20;;;;;;5018078;28;20077;-67
2021/08/19 10:35:46;;;;;;;6.25;3.67;;;29.20;32.00;;;;;;4978954;28;20045;-65
2021/08/19 10:38:24;;;;;;;5.38;2.55;;;29.30;32.20;;;;;;5005046;28;20042;-67
2021/08/19 10:40:49;;;;;;;6.10;2.88;;;29.50;31.80;;;;;;5006816;28;20033;-67
2021/08/19 10:43:30;;;;;;;2.85;2.40;;;29.60;31.50;;;;;;5021428;28;20033;-67
2021/08/19 10:46:10;;;;;;;3.75;2.35;;;29.90;31.60;;;;;;5003024;28;20395;-67
2021/08/19 10:49:02;;;;;;;4.65;2.90;;;29.90;30.10;;;;;;5021716;28;20265;-67
2021/08/19 10:51:28;;;;;;;4.40;2.65;;;29.90;29.00;;;;;;4990360;28;20377;-67
2021/08/19 10:53:54;;;;;;;3.83;2.95;;;29.90;30.20;;;;;;5015398;28;21304;-67
2021/08/19 10:56:43;;;;;;;4.43;2.00;;;29.70;29.20;;;;;;5026384;28;20041;-66
2021/08/19 10:59:30;;;;;;;4.05;2.65;;;29.90;30.00;;;;;;5017528;28;20068;-67
2021/08/19 11:01:55;;;;;;;3.90;2.50;;;30.00;29.20;;;;;;4995228;28;20030;-67
2021/08/19 11:04:41;;;;;;;3.15;2.20;;;30.10;29.30;;;;;;5011695;28;20034;-68
2021/08/19 11:07:09;;;;;;;4.65;2.78;;;29.90;29.30;;;;;;5019543;28;20123;-67
2021/08/19 11:09:36;;;;;;;6.30;3.17;;;30.00;29.20;;;;;;5007180;28;20447;-67
2021/08/19 11:12:06;;;;;;;7.00;2.78;;;30.10;29.10;;;;;;5029076;28;20124;-67
2021/08/19 11:14:32;;;;;;;4.25;2.47;;;30.40;28.50;;;;;;5026410;28;20409;-67
2021/08/19 11:17:01;;;;;;;4.65;2.70;;;30.60;26.60;;;;;;5030570;28;20042;-67
2021/08/19 11:19:29;;;;;;;4.65;2.75;;;30.60;27.10;;;;;;5024740;28;20080;-67
2021/08/19 11:22:02;;;;;;;2.92;2.45;;;30.70;26.80;;;;;;5027160;28;20050;-67
2021/08/19 11:24:30;;;;;;;6.20;2.70;;;30.80;26.10;;;;;;5021090;28;20034;-67
2021/08/19 11:26:59;;;;;;;4.35;2.60;;;31.10;25.70;;;;;;5029039;28;20033;-67
2021/08/19 11:29:35;;;;;;;2.88;2.42;;;31.40;25.40;;;;;;5025887;28;20517;-67
2021/08/19 11:32:03;;;;;;;4.30;2.40;;;31.40;24.30;;;;;;5027827;28;20040;-67
2021/08/19 11:34:28;;;;;;;4.32;3.03;;;31.20;25.10;;;;;;5026863;28;20132;-67
2021/08/19 11:36:54;;;;;;;4.93;2.28;;;31.30;25.10;;;;;;5030273;28;20120;-67
2021/08/19 11:39:28;;;;;;;2.58;2.38;;;32.00;24.50;;;;;;5012434;28;20041;-67
2021/08/19 11:42:00;;;;;;;;;;;32.50;23.40;;;;;;5030025;28;20124;-67
2021/08/19 11:44:26;;;;;;;3.97;3.28;;;32.90;23.00;;;;;;5030136;28;19921;-67
2021/08/19 11:47:12;;;;;;;3.13;2.80;;;33.40;23.40;;;;;;5026385;28;20128;-67
2021/08/19 11:49:37;;;;;;;3.28;2.55;;;33.50;23.10;;;;;;5026460;28;20578;-65
2021/08/19 11:52:09;;;;;;;4.57;3.20;;;33.70;22.00;;;;;;5023826;28;20124;-67
2021/08/19 11:54:44;;;;;;;3.40;3.03;;;34.10;21.10;;;;;;5028579;28;20124;-67
2021/08/19 11:57:20;;;;;;;3.67;2.78;;;33.80;21.40;;;;;;5024645;28;20037;-68
2021/08/19 12:00:02;;;;;;;3.13;2.60;;;34.30;20.40;;;;;;5026388;28;20052;-67
2021/08/19 12:02:28;;;;;;;3.97;2.65;;;34.70;20.20;;;;;;4961844;28;20423;-65
2021/08/19 12:05:11;;;;;;;3.30;3.00;;;34.70;20.40;;;;;;5000340;28;20037;-66
2021/08/19 12:07:41;;;;;;;6.40;3.13;;;35.10;20.20;;;;;;5004236;28;20081;-67
2021/08/19 12:10:08;;;;;;;2.97;2.70;;;35.10;20.30;;;;;;5016039;28;20040;-66
2021/08/19 12:12:36;;;;;;;2.72;2.53;;;37.50;19.20;;;;;;5007919;28;20045;-66
2021/08/19 12:15:07;;;;;;;2.72;2.53;;;39.50;17.30;;;;;;5018065;28;20140;-66
2021/08/19 12:17:32;;;;;;;2.80;2.60;;;39.00;17.40;;;;;;5014534;28;20037;-65
2021/08/19 12:20:16;;;;;;;3.47;3.17;;;40.80;16.40;;;;;;5010216;28;20514;-65
2021/08/19 12:22:42;;;;;;;3.10;2.90;;;42.10;14.60;;;;;;5003803;28;20041;-66
2021/08/19 12:25:22;;;;;;;2.95;2.63;;;41.30;14.40;;;;;;5015490;28;20506;-66
2021/08/19 12:28:17;;;;;;;3.38;2.65;;;42.30;14.40;;;;;;5023068;28;20107;-65
2021/08/19 12:30:57;;;;;;;3.50;3.20;;;40.30;14.10;;;;;;5002361;28;20065;-66
2021/08/19 12:33:39;;;;;;;3.17;2.85;;;39.10;15.30;;;;;;4984738;28;20110;-66
2021/08/19 12:36:20;;;;;;;3.85;2.17;;;39.90;15.00;;;;;;5007401;28;20033;-66
2021/08/19 12:38:49;;;;;;;3.13;2.70;;;39.00;15.50;;;;;;5024310;28;20072;-62
2021/08/19 12:41:17;;;;;;;3.60;3.30;;;38.20;16.10;;;;;;5024189;28;20073;-66
2021/08/19 12:43:45;;;;;;;4.38;2.85;;;36.80;16.90;;;;;;5019384;28;20034;-66
2021/08/19 12:46:14;;;;;;;3.22;2.75;;;36.40;17.80;;;;;;5022736;28;20029;-66
2021/08/19 12:48:40;;;;;;;3.90;2.90;;;36.10;18.10;;;;;;5023717;28;20495;-66
2021/08/19 12:51:19;;;;;;;2.92;2.63;;;35.90;18.10;;;;;;5031456;28;20123;-66
2021/08/19 12:54:07;;;;;;;4.35;2.88;;;36.20;18.10;;;;;;5000302;28;20099;-66
2021/08/19 12:56:34;;;;;;;2.90;2.70;;;38.60;16.60;;;;;;4987350;28;20069;-66